createdAt,value
2018-06-19T00:01:30.660Z,3.80
2018-06-19T00:03:59.029Z,6.58
2018-06-19T00:06:27.469Z,4.70
2018-06-19T00:08:55.566Z,4.90
2018-06-19T00:11:23.923Z,6.87
2018-06-19T00:13:52.496Z,3.17
2018-06-19T00:16:20.868Z,3.55
2018-06-19T00:18:53.256Z,3.20
2018-06-19T00:21:27.236Z,3.05
2018-06-19T00:23:55.654Z,3.30
2018-06-19T00:26:24.086Z,3.10
2018-06-19T00:28:53.161Z,7.28
2018-06-19T00:31:21.519Z,5.60
2018-06-19T00:33:49.905Z,5.00
2018-06-19T00:36:18.297Z,6.47
2018-06-19T00:38:46.680Z,7.12
2018-06-19T00:41:15.078Z,4.55
2018-06-19T00:43:43.449Z,5.20
2018-06-19T00:46:11.886Z,7.75
2018-06-19T00:48:40.253Z,4.60
2018-06-19T00:51:08.734Z,7.70
2018-06-19T00:53:37.132Z,6.60
2018-06-19T00:56:17.049Z,4.87
2018-06-19T00:58:45.146Z,7.87
2018-06-19T01:01:13.525Z,5.60
2018-06-19T01:03:41.942Z,6.70
2018-06-19T01:06:10.340Z,3.60
2018-06-19T01:08:38.753Z,5.90
2018-06-19T01:11:07.329Z,5.47
2018-06-19T01:13:35.412Z,5.50
2018-06-19T01:16:03.813Z,4.62
2018-06-19T01:18:32.184Z,6.85
2018-06-19T01:21:00.717Z,7.97
2018-06-19T01:23:29.096Z,7.30
2018-06-19T01:25:57.576Z,6.60
2018-06-19T01:28:25.957Z,7.05
2018-06-19T01:30:54.433Z,7.97
2018-06-19T01:33:22.814Z,7.05
2018-06-19T01:35:51.196Z,6.35
2018-06-19T01:38:19.614Z,4.92
2018-06-19T01:40:47.976Z,4.45
2018-06-19T01:43:16.359Z,5.08
2018-06-19T01:45:44.769Z,3.13
2018-06-19T01:48:13.172Z,5.23
2018-06-19T01:50:41.544Z,4.85
2018-06-19T01:53:09.913Z,7.95
2018-06-19T01:55:38.260Z,3.92
2018-06-19T01:58:06.726Z,5.50
2018-06-19T02:00:35.113Z,5.62
2018-06-19T02:03:03.512Z,5.90
2018-06-19T02:05:31.901Z,5.25
2018-06-19T02:08:00.272Z,4.70
2018-06-19T02:10:28.709Z,7.90
2018-06-19T02:12:57.081Z,5.00
2018-06-19T02:15:25.481Z,7.03
2018-06-19T02:17:53.833Z,3.85
2018-06-19T02:20:22.297Z,6.20
2018-06-19T02:22:50.638Z,4.78
2018-06-19T02:25:19.036Z,3.30
2018-06-19T02:27:47.423Z,5.08
2018-06-19T02:30:15.820Z,6.35
2018-06-19T02:32:44.189Z,5.50
2018-06-19T02:35:12.557Z,7.60
2018-06-19T02:37:40.929Z,6.07
2018-06-19T02:40:09.313Z,4.87
2018-06-19T02:42:37.747Z,5.40
2018-06-19T02:45:06.483Z,9.58
2018-06-19T02:47:34.868Z,8.53
2018-06-19T02:50:03.286Z,7.10
2018-06-19T02:52:31.501Z,5.47
2018-06-19T02:54:59.809Z,5.05
2018-06-19T02:57:28.158Z,4.22
2018-06-19T02:59:56.583Z,6.90
2018-06-19T03:02:24.664Z,4.07
2018-06-19T03:04:52.731Z,6.12
2018-06-19T03:07:20.857Z,5.45
2018-06-19T03:09:49.255Z,5.85
2018-06-19T03:12:17.593Z,5.17
2018-06-19T03:14:46.013Z,3.42
2018-06-19T03:17:14.417Z,6.35
2018-06-19T03:19:42.535Z,7.40
2018-06-19T03:22:10.928Z,5.85
2018-06-19T03:24:39.439Z,4.78
2018-06-19T03:27:07.823Z,4.42
2018-06-19T03:29:35.883Z,7.20
2018-06-19T03:32:04.305Z,8.10
2018-06-19T03:34:32.791Z,4.42
2018-06-19T03:37:01.172Z,7.17
2018-06-19T03:39:29.564Z,5.87
2018-06-19T03:41:57.956Z,3.87
2018-06-19T03:44:26.362Z,5.60
2018-06-19T03:46:54.736Z,7.10
2018-06-19T03:49:23.148Z,4.50
2018-06-19T03:51:51.549Z,6.30
2018-06-19T03:54:19.936Z,5.43
2018-06-19T03:56:48.345Z,4.83
2018-06-19T03:59:16.704Z,10.05
2018-06-19T04:01:45.084Z,7.25
2018-06-19T04:04:13.462Z,5.67
2018-06-19T04:06:41.886Z,6.05
2018-06-19T04:09:10.739Z,4.42
2018-06-19T04:11:39.060Z,9.05
2018-06-19T04:14:07.249Z,3.90
2018-06-19T04:16:35.639Z,8.40
2018-06-19T04:19:04.066Z,7.47
2018-06-19T04:21:32.451Z,7.67
2018-06-19T04:24:00.874Z,9.38
2018-06-19T04:26:29.235Z,6.23
2018-06-19T04:28:58.041Z,8.07
2018-06-19T04:31:26.421Z,7.42
2018-06-19T04:33:54.822Z,7.78
2018-06-19T04:36:23.190Z,6.45
2018-06-19T04:38:51.639Z,11.63
2018-06-19T04:41:19.709Z,7.95
2018-06-19T04:43:48.088Z,8.60
2018-06-19T04:46:16.443Z,7.12
2018-06-19T04:48:44.863Z,8.63
2018-06-19T04:51:13.245Z,6.95
2018-06-19T04:53:41.595Z,7.22
2018-06-19T04:56:09.671Z,8.43
2018-06-19T04:58:38.030Z,7.08
2018-06-19T05:01:06.641Z,9.23
2018-06-19T05:03:35.034Z,9.20
2018-06-19T05:06:03.435Z,6.70
2018-06-19T05:08:31.812Z,13.83
2018-06-19T05:11:00.567Z,10.53
2018-06-19T05:13:28.947Z,14.95
2018-06-19T05:15:58.365Z,14.00
2018-06-19T05:18:26.760Z,10.35
2018-06-19T05:20:55.606Z,10.40
2018-06-19T05:23:23.988Z,15.30
2018-06-19T05:25:52.372Z,11.45
2018-06-19T05:28:20.952Z,9.75
2018-06-19T05:30:49.366Z,9.98
2018-06-19T05:33:17.859Z,9.60
2018-06-19T05:35:46.281Z,12.65
2018-06-19T05:38:14.700Z,11.65
2018-06-19T05:40:43.127Z,14.60
2018-06-19T05:43:11.236Z,11.43
2018-06-19T05:45:39.613Z,9.93
2018-06-19T05:48:08.007Z,14.67
2018-06-19T05:50:36.428Z,13.83
2018-06-19T05:53:04.552Z,16.33
2018-06-19T05:55:32.993Z,12.78
2018-06-19T05:58:01.400Z,12.00
2018-06-19T06:00:29.824Z,12.70
2018-06-19T06:02:58.173Z,13.70
2018-06-19T06:05:26.571Z,15.37
2018-06-19T06:07:54.974Z,10.45
2018-06-19T06:10:23.371Z,10.35
2018-06-19T06:12:51.791Z,14.35
2018-06-19T06:15:20.174Z,15.38
2018-06-19T06:17:48.529Z,13.68
2018-06-19T06:20:17.006Z,13.60
2018-06-19T06:22:45.393Z,12.70
2018-06-19T06:25:14.073Z,13.15
2018-06-19T06:27:42.446Z,11.00
2018-06-19T06:30:10.864Z,15.53
2018-06-19T06:32:39.405Z,10.35
2018-06-19T06:35:07.831Z,12.73
2018-06-19T06:37:36.216Z,12.43
2018-06-19T06:40:04.823Z,11.45
2018-06-19T06:42:32.930Z,14.40
2018-06-19T06:45:01.303Z,13.32
2018-06-19T06:47:29.680Z,14.33
2018-06-19T06:49:58.216Z,13.00
2018-06-19T06:52:26.643Z,18.70
2018-06-19T06:54:55.158Z,14.75
2018-06-19T06:57:23.564Z,13.80
2018-06-19T06:59:51.999Z,16.52
2018-06-19T07:02:20.388Z,15.15
2018-06-19T07:04:48.761Z,15.53
2018-06-19T07:07:17.148Z,16.23
2018-06-19T07:09:45.500Z,16.97
2018-06-19T07:12:13.869Z,17.00
2018-06-19T07:14:42.236Z,18.75
2018-06-19T07:17:10.616Z,14.38
2018-06-19T07:19:38.711Z,16.55
2018-06-19T07:22:07.133Z,16.50
2018-06-19T07:24:35.529Z,19.82
2018-06-19T07:27:03.950Z,23.38
2018-06-19T07:29:32.374Z,17.67
2018-06-19T07:32:00.813Z,30.05
2018-06-19T07:34:29.219Z,26.97
2018-06-19T07:36:57.571Z,22.45
2018-06-19T07:39:26.000Z,28.05
2018-06-19T07:41:54.379Z,30.15
2018-06-19T07:44:22.757Z,29.37
2018-06-19T07:46:51.109Z,24.00
2018-06-19T07:49:19.693Z,28.40
2018-06-19T07:51:48.103Z,25.72
2018-06-19T07:54:16.486Z,25.10
2018-06-19T07:56:44.629Z,25.62
2018-06-19T07:59:13.020Z,25.65
2018-06-19T08:01:41.424Z,27.30
2018-06-19T08:04:09.823Z,28.98
2018-06-19T08:06:38.230Z,27.77
2018-06-19T08:09:08.582Z,29.85
2018-06-19T08:11:37.190Z,29.52
2018-06-19T08:14:05.287Z,31.40
2018-06-19T08:16:33.691Z,30.75
2018-06-19T08:19:02.108Z,27.73
2018-06-19T08:21:30.510Z,29.97
2018-06-19T08:23:58.872Z,28.27
2018-06-19T08:26:27.252Z,30.97
2018-06-19T08:28:55.645Z,32.83
2018-06-19T08:31:24.017Z,32.53
2018-06-19T08:33:52.417Z,30.83
2018-06-19T08:36:20.820Z,33.47
2018-06-19T08:38:49.235Z,33.60
2018-06-19T08:41:17.624Z,37.43
2018-06-19T08:43:45.805Z,34.63
2018-06-19T08:46:14.177Z,36.20
2018-06-19T08:48:42.548Z,35.03
2018-06-19T08:51:10.956Z,30.67
2018-06-19T08:53:39.039Z,30.27
2018-06-19T08:56:07.445Z,34.73
2018-06-19T08:58:35.847Z,35.10
2018-06-19T09:01:04.190Z,30.77
2018-06-19T09:03:32.598Z,32.13
2018-06-19T09:06:00.956Z,29.55
2018-06-19T09:08:29.399Z,31.30
2018-06-19T09:10:57.772Z,32.00
2018-06-19T09:13:26.205Z,35.75
2018-06-19T09:15:54.972Z,37.40
2018-06-19T09:18:23.355Z,34.60
2018-06-19T09:20:51.821Z,35.80
2018-06-19T09:23:20.236Z,34.73
2018-06-19T09:25:48.666Z,36.83
2018-06-19T09:28:17.099Z,32.80
2018-06-19T09:30:45.482Z,31.87
2018-06-19T09:33:13.873Z,33.50
2018-06-19T09:35:42.560Z,31.02
2018-06-19T09:38:10.992Z,34.45
2018-06-19T09:40:39.486Z,36.10
2018-06-19T09:43:07.859Z,34.75
2018-06-19T09:45:36.283Z,35.05
2018-06-19T09:48:04.726Z,37.05
2018-06-19T09:50:33.115Z,34.95
2018-06-19T09:53:01.708Z,35.20
2018-06-19T09:55:30.096Z,32.33
2018-06-19T09:57:58.504Z,32.47
2018-06-19T10:00:31.836Z,32.83
2018-06-19T10:03:00.404Z,35.48
2018-06-19T10:05:29.658Z,35.57
2018-06-19T10:07:58.056Z,33.80
2018-06-19T10:10:26.491Z,31.10
2018-06-19T10:12:55.323Z,30.60
2018-06-19T10:15:23.759Z,35.58
2018-06-19T10:17:52.164Z,33.60
2018-06-19T10:20:20.278Z,35.48
2018-06-19T10:22:48.703Z,32.17
2018-06-19T10:25:17.081Z,33.70
2018-06-19T10:27:45.487Z,31.03
2018-06-19T10:30:13.931Z,32.33
2018-06-19T10:32:42.296Z,31.97
2018-06-19T10:35:10.682Z,31.62
2018-06-19T10:37:39.081Z,34.40
2018-06-19T10:40:07.221Z,33.63
2018-06-19T10:42:35.568Z,31.20
2018-06-19T10:45:03.973Z,31.87
2018-06-19T10:47:32.388Z,33.35
2018-06-19T10:50:00.800Z,33.08
2018-06-19T10:52:29.163Z,34.92
2018-06-19T10:54:57.264Z,35.98
2018-06-19T10:57:25.617Z,35.97
2018-06-19T10:59:54.007Z,36.67
2018-06-19T11:02:22.387Z,35.48
2018-06-19T11:04:50.768Z,35.40
2018-06-19T11:07:23.369Z,32.13
2018-06-19T11:09:51.735Z,34.73
2018-06-19T11:12:20.121Z,33.75
2018-06-19T11:14:48.474Z,35.55
2018-06-19T11:17:16.856Z,35.13
2018-06-19T11:19:45.252Z,37.45
2018-06-19T11:22:13.634Z,41.70
2018-06-19T11:24:42.039Z,43.30
2018-06-19T11:27:10.416Z,38.38
2018-06-19T11:29:38.797Z,50.58
2018-06-19T11:32:07.223Z,44.15
2018-06-19T11:34:35.623Z,40.55
2018-06-19T11:37:04.050Z,39.05
2018-06-19T11:39:32.439Z,42.88
2018-06-19T11:42:00.812Z,38.45
2018-06-19T11:44:29.213Z,45.93
2018-06-19T11:46:57.601Z,43.47
2018-06-19T11:49:25.977Z,44.55
2018-06-19T11:51:54.351Z,40.78
2018-06-19T11:54:22.758Z,43.50
2018-06-19T11:56:51.233Z,42.83
2018-06-19T11:59:19.588Z,43.30
2018-06-19T12:01:47.705Z,45.05
2018-06-19T12:04:16.070Z,43.33
2018-06-19T12:06:44.474Z,41.40
2018-06-19T12:09:12.847Z,40.90
2018-06-19T12:11:41.559Z,39.88
2018-06-19T12:14:10.856Z,40.00
2018-06-19T12:16:39.296Z,38.30
2018-06-19T12:19:08.226Z,36.40
2018-06-19T12:21:36.623Z,63.23
2018-06-19T12:24:05.337Z,39.37
2018-06-19T12:26:33.797Z,39.88
2018-06-19T12:29:02.180Z,40.45
2018-06-19T12:31:30.528Z,34.38
2018-06-19T12:33:58.908Z,38.47
2018-06-19T12:36:27.330Z,37.60
2018-06-19T12:38:55.704Z,36.50
2018-06-19T12:41:36.862Z,37.38
2018-06-19T12:44:04.978Z,35.03
2018-06-19T12:46:33.345Z,33.80
2018-06-19T12:49:01.735Z,34.33
2018-06-19T12:51:43.337Z,35.08
2018-06-19T12:55:23.907Z,36.80
2018-06-19T12:57:52.612Z,44.88
2018-06-19T13:00:20.977Z,46.05
2018-06-19T13:03:00.965Z,45.60
2018-06-19T13:05:34.699Z,42.17
2018-06-19T13:08:03.055Z,44.73
2018-06-19T13:10:31.440Z,43.98
2018-06-19T13:13:36.624Z,53.02
2018-06-19T13:16:05.076Z,51.98
2018-06-19T13:18:45.018Z,47.97
2018-06-19T13:21:13.480Z,45.70
2018-06-19T13:23:41.590Z,53.70
2018-06-19T13:26:10.055Z,49.93
2018-06-19T13:29:54.976Z,52.20
2018-06-19T13:32:23.696Z,36.33
2018-06-19T13:34:52.093Z,35.60
2018-06-19T13:37:20.484Z,28.83
2018-06-19T13:39:59.091Z,26.17
2018-06-19T13:42:38.870Z,27.22
2018-06-19T13:45:08.282Z,27.20
2018-06-19T13:47:36.674Z,24.85
2018-06-19T13:50:05.354Z,24.27
2018-06-19T13:52:33.728Z,28.35
2018-06-19T13:57:25.112Z,30.30
2018-06-19T13:59:53.512Z,23.07
2018-06-19T14:02:21.888Z,22.60
2018-06-19T14:04:50.525Z,21.95
2018-06-19T14:07:18.675Z,23.18
2018-06-19T14:09:58.314Z,23.30
2018-06-19T14:13:12.822Z,23.62
2018-06-19T14:15:50.847Z,21.87
2018-06-19T14:18:20.609Z,20.60
2018-06-19T14:20:49.202Z,17.17
2018-06-19T14:23:17.669Z,23.47
2018-06-19T14:25:46.017Z,22.20
2018-06-19T14:28:14.366Z,26.27
2018-06-19T14:30:42.759Z,25.27
2018-06-19T14:33:11.300Z,30.97
2018-06-19T14:35:39.690Z,35.30
2018-06-19T14:38:08.118Z,21.85
2018-06-19T14:40:36.534Z,18.87
2018-06-19T14:43:04.967Z,17.20
2018-06-19T14:45:33.324Z,20.40
2018-06-19T14:48:01.683Z,20.45
2018-06-19T14:50:29.780Z,16.37
2018-06-19T14:52:58.171Z,16.32
2018-06-19T14:55:26.575Z,16.23
2018-06-19T14:57:54.946Z,15.40
2018-06-19T15:00:23.343Z,15.68
2018-06-19T15:02:51.716Z,13.30
2018-06-19T15:05:20.107Z,14.35
2018-06-19T15:07:53.859Z,17.53
2018-06-19T15:10:22.515Z,14.47
2018-06-19T15:12:51.088Z,14.03
2018-06-19T15:15:19.463Z,14.58
2018-06-19T15:17:47.863Z,17.42
2018-06-19T15:20:16.412Z,16.05
2018-06-19T15:22:44.841Z,20.23
2018-06-19T15:25:13.228Z,22.67
2018-06-19T15:27:41.590Z,30.37
2018-06-19T15:30:09.968Z,29.23
2018-06-19T15:32:38.385Z,26.25
2018-06-19T15:35:06.777Z,15.50
2018-06-19T15:37:35.187Z,26.15
2018-06-19T15:40:03.679Z,26.70
2018-06-19T15:42:32.077Z,32.90
2018-06-19T15:45:00.478Z,20.75
2018-06-19T15:47:28.869Z,19.62
2018-06-19T15:49:57.282Z,23.55
2018-06-19T15:52:25.477Z,14.98
2018-06-19T15:54:53.849Z,13.25
2018-06-19T15:57:21.953Z,12.18
2018-06-19T15:59:50.357Z,12.00
2018-06-19T16:02:18.738Z,11.85
2018-06-19T16:04:47.106Z,14.00
2018-06-19T16:07:15.484Z,12.83
2018-06-19T16:09:43.886Z,13.10
2018-06-19T16:12:12.280Z,13.60
2018-06-19T16:14:40.661Z,11.68
2018-06-19T16:17:08.761Z,11.03
2018-06-19T16:19:37.161Z,10.18
2018-06-19T16:22:05.908Z,10.30
2018-06-19T16:24:34.294Z,12.88
2018-06-19T16:27:02.689Z,16.27
2018-06-19T16:29:31.081Z,22.13
2018-06-19T16:31:59.511Z,22.77
2018-06-19T16:34:27.883Z,14.98
2018-06-19T16:36:56.268Z,11.60
2018-06-19T16:39:24.644Z,15.87
2018-06-19T16:41:53.026Z,32.73
2018-06-19T16:44:21.123Z,29.35
2018-06-19T16:46:49.491Z,13.78
2018-06-19T16:49:17.944Z,17.75
2018-06-19T16:51:46.329Z,17.30
2018-06-19T16:54:14.689Z,20.82
2018-06-19T16:56:43.060Z,17.30
2018-06-19T16:59:11.433Z,18.00
2018-06-19T17:01:39.926Z,15.93
2018-06-19T17:04:08.302Z,14.10
2018-06-19T17:06:36.696Z,13.88
2018-06-19T17:09:07.063Z,18.55
2018-06-19T17:11:35.565Z,15.43
2018-06-19T17:14:04.075Z,15.32
2018-06-19T17:16:32.436Z,11.03
2018-06-19T17:19:00.799Z,15.70
2018-06-19T17:21:29.187Z,13.43
2018-06-19T17:23:57.545Z,12.50
2018-06-19T17:26:26.024Z,14.13
2018-06-19T17:28:55.558Z,12.37
2018-06-19T17:31:25.966Z,17.80
2018-06-19T17:33:54.426Z,20.25
2018-06-19T17:36:22.846Z,19.32
2018-06-19T17:38:51.212Z,14.63
2018-06-19T17:41:19.696Z,21.68
2018-06-19T17:43:48.101Z,18.62
2018-06-19T17:46:16.475Z,13.93
2018-06-19T17:48:44.849Z,17.65
2018-06-19T17:51:13.220Z,30.17
2018-06-19T17:53:41.614Z,17.50
2018-06-19T17:56:10.028Z,21.77
2018-06-19T17:58:38.553Z,15.53
2018-06-19T18:01:06.948Z,19.77
2018-06-19T18:03:35.312Z,30.77
2018-06-19T18:06:03.784Z,16.97
2018-06-19T18:08:32.346Z,23.47
2018-06-19T18:11:00.719Z,18.35
2018-06-19T18:13:29.155Z,17.30
2018-06-19T18:15:57.550Z,18.67
2018-06-19T18:18:25.929Z,15.00
2018-06-19T18:20:54.333Z,20.60
2018-06-19T18:23:22.762Z,18.77
2018-06-19T18:25:51.222Z,19.47
2018-06-19T18:28:19.616Z,21.83
2018-06-19T18:30:48.011Z,19.62
2018-06-19T18:33:16.495Z,29.37
2018-06-19T18:35:44.877Z,16.20
2018-06-19T18:38:13.256Z,18.35
2018-06-19T18:40:41.671Z,14.10
2018-06-19T18:43:10.025Z,13.28
2018-06-19T18:45:38.160Z,20.20
2018-06-19T18:48:06.580Z,34.75
2018-06-19T18:50:34.988Z,16.73
2018-06-19T18:53:03.433Z,13.72
2018-06-19T18:55:31.817Z,14.90
2018-06-19T18:57:59.905Z,14.28
2018-06-19T19:00:28.307Z,12.87
2018-06-19T19:02:56.759Z,17.20
2018-06-19T19:05:25.296Z,12.43
2018-06-19T19:07:53.711Z,12.60
2018-06-19T19:10:27.309Z,12.27
2018-06-19T19:12:55.394Z,13.10
2018-06-19T19:16:28.569Z,13.83
2018-06-19T19:19:00.946Z,12.40
2018-06-19T19:21:29.038Z,13.38
2018-06-19T19:23:57.125Z,15.40
2018-06-19T19:26:30.865Z,14.00
2018-06-19T19:29:04.865Z,14.57
2018-06-19T19:31:33.243Z,13.65
2018-06-19T19:34:01.651Z,15.53
2018-06-19T19:36:35.260Z,16.82
2018-06-19T19:39:09.018Z,18.07
2018-06-19T19:41:37.391Z,14.10
2018-06-19T19:44:05.764Z,13.10
2018-06-19T19:46:39.336Z,16.57
2018-06-19T19:49:07.430Z,15.13
2018-06-19T19:51:35.821Z,15.45
2018-06-19T19:54:04.292Z,12.10
2018-06-19T19:56:38.198Z,14.28
2018-06-19T19:59:06.560Z,18.57
2018-06-19T20:01:34.954Z,13.70
2018-06-19T20:04:03.296Z,13.33
2018-06-19T20:06:31.849Z,14.10
2018-06-19T20:09:00.209Z,12.60
2018-06-19T20:11:28.599Z,16.67
2018-06-19T20:13:56.998Z,17.95
2018-06-19T20:16:25.376Z,13.13
2018-06-19T20:18:53.741Z,14.95
2018-06-19T20:21:22.158Z,18.35
2018-06-19T20:23:50.540Z,18.25
2018-06-19T20:26:18.625Z,18.42
2018-06-19T20:28:47.000Z,13.30
2018-06-19T20:31:15.119Z,15.32
2018-06-19T20:33:43.493Z,15.30
2018-06-19T20:36:11.883Z,15.10
2018-06-19T20:38:40.299Z,14.35
2018-06-19T20:41:08.403Z,21.05
2018-06-19T20:43:36.760Z,16.15
2018-06-19T20:46:05.162Z,16.00
2018-06-19T20:48:33.597Z,16.85
2018-06-19T20:51:01.979Z,16.90
2018-06-19T20:53:30.381Z,15.58
2018-06-19T20:55:58.789Z,18.32
2018-06-19T20:58:27.174Z,18.67
2018-06-19T21:00:55.587Z,20.65
2018-06-19T21:03:23.978Z,19.55
2018-06-19T21:05:52.070Z,22.05
2018-06-19T21:08:20.497Z,20.92
2018-06-19T21:10:48.868Z,19.00
2018-06-19T21:13:17.238Z,21.03
2018-06-19T21:15:45.588Z,16.60
2018-06-19T21:18:13.966Z,19.60
2018-06-19T21:20:42.368Z,21.70
2018-06-19T21:23:10.835Z,21.33
2018-06-19T21:25:39.119Z,18.15
2018-06-19T21:28:07.500Z,16.40
2018-06-19T21:30:35.881Z,17.23
2018-06-19T21:33:04.231Z,19.67
2018-06-19T21:35:32.594Z,18.00
2018-06-19T21:38:00.668Z,17.00
2018-06-19T21:40:28.769Z,16.82
2018-06-19T21:42:57.126Z,15.40
2018-06-19T21:45:25.511Z,14.97
2018-06-19T21:47:53.886Z,17.53
2018-06-19T21:50:22.251Z,15.43
2018-06-19T21:52:50.334Z,15.45
2018-06-19T21:55:18.719Z,13.35
2018-06-19T21:57:47.099Z,14.85
2018-06-19T22:00:15.442Z,12.93
2018-06-19T22:02:43.823Z,12.73
2018-06-19T22:05:12.234Z,13.48
2018-06-19T22:07:40.628Z,17.30
2018-06-19T22:10:09.005Z,14.23
2018-06-19T22:12:37.416Z,12.15
2018-06-19T22:15:05.827Z,13.98
2018-06-19T22:17:34.230Z,17.25
2018-06-19T22:20:02.611Z,14.05
2018-06-19T22:22:30.998Z,16.62
2018-06-19T22:24:59.353Z,16.82
2018-06-19T22:27:27.530Z,12.88
2018-06-19T22:29:55.927Z,11.68
2018-06-19T22:32:24.327Z,14.45
2018-06-19T22:34:52.688Z,15.45
2018-06-19T22:37:21.092Z,13.38
2018-06-19T22:39:49.449Z,15.50
2018-06-19T22:42:17.793Z,12.50
2018-06-19T22:44:45.967Z,11.23
2018-06-19T22:47:14.371Z,15.35
2018-06-19T22:49:42.705Z,15.23
2018-06-19T22:52:11.097Z,15.10
2018-06-19T22:54:39.461Z,17.40
2018-06-19T22:57:07.808Z,15.60
2018-06-19T22:59:36.212Z,15.20
2018-06-19T23:02:04.604Z,12.20
2018-06-19T23:04:33.267Z,12.93
2018-06-19T23:07:01.648Z,17.53
2018-06-19T23:09:30.435Z,14.20
2018-06-19T23:11:58.929Z,15.25
2018-06-19T23:14:27.307Z,19.45
2018-06-19T23:16:55.806Z,17.75
2018-06-19T23:19:24.206Z,15.70
2018-06-19T23:21:52.584Z,14.03
2018-06-19T23:24:20.975Z,13.35
2018-06-19T23:26:49.374Z,15.35
2018-06-19T23:29:17.879Z,14.55
2018-06-19T23:31:46.280Z,18.73
2018-06-19T23:34:14.663Z,15.03
2018-06-19T23:36:43.062Z,16.97
2018-06-19T23:39:11.715Z,14.40
2018-06-19T23:41:40.153Z,12.50
2018-06-19T23:44:08.736Z,14.87
2018-06-19T23:46:37.129Z,11.33
2018-06-19T23:49:05.512Z,13.90
2018-06-19T23:51:33.943Z,14.20
2018-06-19T23:54:04.820Z,13.25
2018-06-19T23:56:33.187Z,13.78
2018-06-19T23:59:01.577Z,14.68
